createdAt,value
2022-10-19T00:00:02.779Z,13.82
2022-10-19T00:02:29.662Z,11.85
2022-10-19T00:04:56.571Z,10.52
2022-10-19T00:07:23.485Z,11.07
2022-10-19T00:09:50.927Z,13.38
2022-10-19T00:12:17.807Z,11.23
2022-10-19T00:14:45.474Z,8.73
2022-10-19T00:17:12.211Z,17.17
2022-10-19T00:19:39.106Z,7.50
2022-10-19T00:22:07.147Z,9.45
2022-10-19T00:24:36.116Z,10.68
2022-10-19T00:27:03.017Z,12.77
2022-10-19T00:29:29.807Z,8.57
2022-10-19T00:31:56.701Z,7.97
2022-10-19T00:34:24.003Z,7.57
2022-10-19T00:36:50.789Z,9.38
2022-10-19T00:39:18.817Z,10.55
2022-10-19T00:41:47.802Z,6.80
2022-10-19T00:44:15.979Z,8.50
2022-10-19T00:46:45.193Z,11.57
2022-10-19T00:49:20.870Z,10.15
2022-10-19T00:51:51.402Z,16.23
2022-10-19T00:54:18.968Z,15.93
2022-10-19T00:56:49.331Z,14.45
2022-10-19T00:59:20.949Z,13.52
2022-10-19T01:01:49.269Z,16.05
2022-10-19T01:04:16.174Z,23.85
2022-10-19T01:06:43.270Z,15.32
2022-10-19T01:09:10.113Z,14.15
2022-10-19T01:11:57.287Z,13.75
2022-10-19T01:14:47.979Z,14.45
2022-10-19T01:17:24.145Z,13.30
2022-10-19T01:20:06.033Z,11.27
2022-10-19T01:22:35.691Z,13.70
2022-10-19T01:25:33.201Z,10.60
2022-10-19T01:28:15.305Z,12.88
2022-10-19T01:30:46.138Z,19.33
2022-10-19T01:33:41.410Z,13.65
2022-10-19T01:36:23.393Z,14.77
2022-10-19T01:39:02.898Z,17.17
2022-10-19T01:41:45.906Z,14.02
2022-10-19T01:44:36.814Z,12.52
2022-10-19T01:47:08.927Z,11.05
2022-10-19T01:49:44.728Z,10.95
2022-10-19T01:52:15.265Z,16.13
2022-10-19T01:54:49.383Z,12.27
2022-10-19T01:57:24.195Z,13.45
2022-10-19T01:59:53.453Z,16.23
2022-10-19T02:02:21.743Z,11.82
2022-10-19T02:04:50.526Z,14.65
2022-10-19T02:07:21.043Z,16.42
2022-10-19T02:09:48.151Z,12.23
2022-10-19T02:12:16.831Z,14.00
2022-10-19T02:14:47.619Z,15.57
2022-10-19T02:17:19.578Z,11.23
2022-10-19T02:19:46.380Z,14.77
2022-10-19T02:22:14.132Z,16.58
2022-10-19T02:24:41.188Z,18.13
2022-10-19T02:27:09.095Z,11.20
2022-10-19T02:29:37.739Z,8.40
2022-10-19T02:32:05.239Z,11.57
2022-10-19T02:34:33.261Z,9.27
2022-10-19T02:37:00.062Z,12.95
2022-10-19T02:39:27.255Z,14.32
2022-10-19T02:42:25.202Z,13.50
2022-10-19T02:45:27.504Z,15.68
2022-10-19T02:47:59.218Z,17.75
2022-10-19T02:50:26.303Z,17.73
2022-10-19T02:52:53.153Z,9.70
2022-10-19T02:55:20.060Z,18.83
2022-10-19T02:57:46.933Z,13.23
2022-10-19T03:00:13.948Z,12.93
2022-10-19T03:02:40.877Z,14.02
2022-10-19T03:05:08.703Z,9.25
2022-10-19T03:07:36.353Z,11.63
2022-10-19T03:10:04.078Z,13.18
2022-10-19T03:12:30.905Z,13.38
2022-10-19T03:14:57.757Z,7.47
2022-10-19T03:17:24.640Z,12.52
2022-10-19T03:19:51.549Z,12.18
2022-10-19T03:22:18.482Z,8.32
2022-10-19T03:24:45.427Z,9.70
2022-10-19T03:27:12.382Z,7.93
2022-10-19T03:29:39.316Z,9.85
2022-10-19T03:32:06.272Z,8.50
2022-10-19T03:34:33.256Z,9.15
2022-10-19T03:37:00.101Z,12.32
2022-10-19T03:39:27.046Z,11.85
2022-10-19T03:41:53.996Z,11.25
2022-10-19T03:44:20.834Z,9.63
2022-10-19T03:46:47.685Z,9.00
2022-10-19T03:49:14.735Z,7.35
2022-10-19T03:51:41.972Z,6.45
2022-10-19T03:54:14.872Z,4.10
2022-10-19T03:56:42.994Z,7.15
2022-10-19T03:59:14.585Z,7.78
2022-10-19T04:01:44.918Z,5.10
2022-10-19T04:04:17.030Z,8.23
2022-10-19T04:06:45.972Z,7.03
2022-10-19T04:09:15.274Z,8.60
2022-10-19T04:11:42.431Z,6.80
2022-10-19T04:14:19.234Z,7.82
2022-10-19T04:16:54.086Z,11.90
2022-10-19T04:19:20.916Z,4.57
2022-10-19T04:21:49.633Z,6.82
2022-10-19T04:24:18.962Z,5.25
2022-10-19T04:26:48.958Z,7.45
2022-10-19T04:29:17.159Z,4.40
2022-10-19T04:31:44.198Z,8.27
2022-10-19T04:34:11.454Z,5.13
2022-10-19T04:36:38.855Z,10.15
2022-10-19T04:39:06.318Z,9.27
2022-10-19T04:41:33.505Z,7.72
2022-10-19T04:44:02.512Z,6.50
2022-10-19T04:46:30.570Z,6.78
2022-10-19T04:48:58.131Z,7.15
2022-10-19T04:51:25.626Z,6.07
2022-10-19T04:53:54.427Z,8.38
2022-10-19T04:58:57.704Z,6.82
2022-10-19T05:06:29.295Z,8.45
2022-10-19T05:08:56.276Z,9.10
2022-10-19T05:11:23.270Z,9.10
2022-10-19T05:13:50.414Z,9.30
2022-10-19T05:16:20.112Z,9.07
2022-10-19T05:18:58.894Z,12.13
2022-10-19T05:21:27.898Z,8.30
2022-10-19T05:23:56.164Z,8.32
2022-10-19T05:26:25.371Z,6.30
2022-10-19T05:28:57.545Z,4.65
2022-10-19T05:31:27.243Z,7.30
2022-10-19T05:33:56.263Z,9.02
2022-10-19T05:36:26.388Z,7.57
2022-10-19T05:38:55.404Z,6.25
2022-10-19T05:41:23.572Z,6.43
2022-10-19T05:43:56.249Z,4.88
2022-10-19T05:46:23.557Z,7.15
2022-10-19T05:48:50.394Z,4.95
2022-10-19T05:51:21.238Z,4.15
2022-10-19T05:53:48.130Z,5.53
2022-10-19T05:56:20.656Z,4.20
2022-10-19T05:58:48.258Z,4.70
2022-10-19T06:01:16.294Z,3.20
2022-10-19T06:03:43.130Z,4.70
2022-10-19T06:06:10.633Z,5.45
2022-10-19T06:08:38.858Z,2.60
2022-10-19T06:11:09.950Z,2.95
2022-10-19T06:13:38.175Z,3.50
2022-10-19T06:16:06.404Z,3.13
2022-10-19T06:18:33.917Z,4.43
2022-10-19T06:21:06.238Z,4.15
2022-10-19T06:23:34.294Z,3.08
2022-10-19T06:26:07.760Z,3.95
2022-10-19T06:28:35.411Z,4.95
2022-10-19T06:31:04.815Z,3.40
2022-10-19T06:33:34.367Z,2.85
2022-10-19T06:36:14.063Z,3.38
2022-10-19T06:38:41.883Z,6.18
2022-10-19T06:41:09.446Z,1.90
2022-10-19T06:43:36.444Z,2.47
2022-10-19T06:46:08.005Z,2.80
2022-10-19T06:48:35.125Z,3.83
2022-10-19T06:51:06.314Z,3.67
2022-10-19T06:53:34.811Z,1.98
2022-10-19T06:56:03.610Z,3.25
2022-10-19T06:58:31.312Z,4.80
2022-10-19T07:00:59.528Z,3.58
2022-10-19T07:03:28.028Z,5.50
2022-10-19T07:06:00.230Z,5.43
2022-10-19T07:08:29.306Z,4.35
2022-10-19T07:10:59.042Z,4.28
2022-10-19T07:13:28.196Z,4.10
2022-10-19T07:16:07.062Z,3.97
2022-10-19T07:18:35.822Z,5.00
2022-10-19T07:21:05.707Z,5.78
2022-10-19T07:23:34.287Z,5.63
2022-10-19T07:26:13.431Z,4.97
2022-10-19T07:28:41.496Z,4.30
2022-10-19T07:31:11.173Z,4.72
2022-10-19T07:33:38.320Z,5.15
2022-10-19T07:36:08.274Z,3.70
2022-10-19T07:38:35.843Z,4.18
2022-10-19T07:41:05.960Z,7.60
2022-10-19T07:43:33.360Z,5.13
2022-10-19T07:46:02.504Z,4.22
2022-10-19T07:48:30.028Z,3.50
2022-10-19T07:50:57.278Z,4.57
2022-10-19T07:53:24.714Z,4.75
2022-10-19T07:55:51.608Z,3.33
2022-10-19T07:58:18.423Z,3.22
2022-10-19T08:00:45.456Z,9.07
2022-10-19T08:03:57.109Z,5.55
2022-10-19T08:06:05.571Z,4.05
2022-10-19T08:08:33.009Z,5.75
2022-10-19T08:11:14.508Z,9.10
2022-10-19T08:16:25.350Z,3.45
2022-10-19T08:18:55.926Z,2.50
2022-10-19T08:21:22.828Z,3.28
2022-10-19T08:23:50.180Z,2.53
2022-10-19T08:26:16.958Z,3.30
2022-10-19T08:28:43.864Z,1.23
2022-10-19T08:31:22.690Z,1.08
2022-10-19T08:33:50.961Z,2.53
2022-10-19T08:36:19.848Z,2.33
2022-10-19T08:38:48.637Z,1.58
2022-10-19T08:41:35.743Z,4.28
2022-10-19T08:44:24.822Z,3.63
2022-10-19T08:47:12.421Z,2.03
2022-10-19T08:49:40.427Z,5.18
2022-10-19T08:52:22.824Z,3.65
2022-10-19T08:54:56.030Z,2.42
2022-10-19T08:57:58.137Z,4.82
2022-10-19T09:00:47.564Z,3.53
2022-10-19T09:03:31.908Z,4.10
2022-10-19T09:06:23.680Z,3.65
2022-10-19T09:08:53.583Z,6.80
2022-10-19T09:11:26.252Z,4.70
2022-10-19T09:14:05.459Z,4.95
2022-10-19T09:16:35.082Z,5.28
2022-10-19T09:19:04.108Z,6.55
2022-10-19T09:22:06.183Z,7.72
2022-10-19T09:24:43.680Z,5.78
2022-10-19T09:27:24.694Z,5.53
2022-10-19T09:30:02.646Z,7.88
2022-10-19T09:32:36.420Z,6.72
2022-10-19T09:35:38.011Z,10.57
2022-10-19T09:38:07.054Z,8.13
2022-10-19T09:40:35.266Z,4.63
2022-10-19T09:43:19.743Z,6.18
2022-10-19T09:45:59.639Z,6.32
2022-10-19T09:48:38.590Z,8.48
2022-10-19T09:51:13.249Z,8.70
2022-10-19T09:53:52.174Z,8.77
2022-10-19T09:56:24.581Z,9.98
2022-10-19T09:58:53.783Z,12.82
2022-10-19T10:01:41.590Z,8.65
2022-10-19T10:04:10.163Z,11.43
2022-10-19T10:06:39.960Z,14.95
2022-10-19T10:09:07.349Z,18.35
2022-10-19T10:11:38.270Z,14.30
2022-10-19T10:14:23.412Z,17.83
2022-10-19T10:17:03.320Z,16.40
2022-10-19T10:19:32.844Z,16.85
2022-10-19T10:22:00.602Z,16.67
2022-10-19T10:24:31.947Z,17.83
2022-10-19T10:29:39.565Z,23.52
2022-10-19T10:32:16.645Z,16.30
2022-10-19T10:35:27.920Z,21.30
2022-10-19T10:38:09.456Z,18.92
2022-10-19T10:43:29.474Z,21.60
2022-10-19T10:46:04.402Z,27.05
2022-10-19T10:48:58.787Z,26.83
2022-10-19T10:51:32.484Z,19.95
2022-10-19T10:54:20.637Z,17.20
2022-10-19T10:57:12.993Z,15.55
2022-10-19T10:59:45.658Z,16.92
2022-10-19T11:02:36.104Z,16.00
2022-10-19T11:05:14.409Z,18.70
2022-10-19T11:07:45.712Z,16.42
2022-10-19T11:13:16.896Z,13.88
2022-10-19T11:16:16.782Z,13.65
2022-10-19T11:18:51.642Z,11.02
2022-10-19T11:21:29.443Z,13.55
2022-10-19T11:24:18.859Z,12.93
2022-10-19T11:27:07.022Z,14.77
2022-10-19T11:30:04.031Z,14.45
2022-10-19T11:33:04.904Z,12.45
2022-10-19T11:35:53.313Z,13.63
2022-10-19T11:38:41.205Z,11.38
2022-10-19T11:41:27.150Z,17.90
2022-10-19T11:44:18.833Z,18.25
2022-10-19T11:46:51.546Z,15.10
2022-10-19T11:49:46.094Z,15.15
2022-10-19T11:52:21.584Z,12.38
2022-10-19T11:55:14.332Z,11.05
2022-10-19T11:57:53.314Z,13.98
2022-10-19T12:00:38.275Z,12.27
2022-10-19T12:03:24.340Z,13.48
2022-10-19T12:06:04.582Z,12.35
2022-10-19T12:08:44.880Z,10.68
2022-10-19T12:11:30.229Z,16.15
2022-10-19T12:14:34.900Z,12.45
2022-10-19T12:17:16.025Z,7.82
2022-10-19T12:19:48.140Z,12.43
2022-10-19T12:22:25.331Z,9.68
2022-10-19T12:24:55.750Z,7.32
2022-10-19T12:27:41.125Z,11.60
2022-10-19T12:30:22.852Z,14.73
2022-10-19T12:32:58.937Z,9.82
2022-10-19T12:35:58.166Z,7.75
2022-10-19T12:38:33.990Z,8.90
2022-10-19T12:41:20.927Z,9.35
2022-10-19T12:44:08.976Z,9.40
2022-10-19T12:46:43.336Z,9.13
2022-10-19T12:49:29.202Z,7.13
2022-10-19T12:51:57.885Z,8.88
2022-10-19T12:54:27.288Z,6.63
2022-10-19T12:56:56.590Z,7.45
2022-10-19T12:59:32.788Z,7.40
2022-10-19T13:02:01.412Z,9.10
2022-10-19T13:04:31.704Z,6.63
2022-10-19T13:06:58.552Z,7.15
2022-10-19T13:09:42.836Z,8.75
2022-10-19T13:12:19.783Z,3.47
2022-10-19T13:15:01.713Z,5.93
2022-10-19T13:17:34.769Z,5.95
2022-10-19T13:20:14.283Z,6.43
2022-10-19T13:22:57.160Z,2.30
2022-10-19T13:25:35.377Z,4.55
2022-10-19T13:28:08.102Z,2.80
2022-10-19T13:30:46.734Z,6.80
2022-10-19T13:33:28.716Z,4.07
2022-10-19T13:36:04.321Z,5.32
2022-10-19T13:38:49.546Z,2.65
2022-10-19T13:41:27.440Z,1.20
2022-10-19T13:44:03.451Z,4.05
2022-10-19T13:46:30.201Z,3.40
2022-10-19T13:49:32.775Z,4.20
2022-10-19T13:52:11.753Z,6.50
2022-10-19T13:54:57.628Z,2.83
2022-10-19T13:57:43.063Z,4.78
2022-10-19T14:00:12.105Z,4.95
2022-10-19T14:03:09.330Z,3.83
2022-10-19T14:06:03.288Z,5.07
2022-10-19T14:11:01.614Z,4.78
2022-10-19T14:13:29.458Z,3.70
2022-10-19T14:15:58.355Z,7.45
2022-10-19T14:18:31.225Z,5.55
2022-10-19T14:21:09.926Z,9.40
2022-10-19T14:23:42.051Z,5.45
2022-10-19T14:26:23.436Z,5.93
2022-10-19T14:28:55.307Z,2.95
2022-10-19T14:31:25.198Z,9.25
2022-10-19T14:33:54.425Z,6.25
2022-10-19T14:36:23.719Z,5.05
2022-10-19T14:38:54.556Z,6.47
2022-10-19T14:41:27.322Z,7.13
2022-10-19T14:43:57.407Z,8.95
2022-10-19T14:46:32.464Z,6.78
2022-10-19T14:49:02.507Z,7.00
2022-10-19T14:51:41.189Z,8.38
2022-10-19T14:54:15.045Z,10.02
2022-10-19T14:56:53.749Z,7.32
2022-10-19T14:59:31.142Z,13.07
2022-10-19T15:02:05.369Z,10.50
2022-10-19T15:04:37.171Z,13.52
2022-10-19T15:07:15.223Z,12.20
2022-10-19T15:09:49.747Z,8.98
2022-10-19T15:12:20.336Z,9.63
2022-10-19T15:14:48.260Z,9.85
2022-10-19T15:17:44.017Z,8.57
2022-10-19T15:20:43.927Z,10.35
2022-10-19T15:23:48.511Z,8.00
2022-10-19T15:26:18.228Z,19.52
2022-10-19T15:28:45.212Z,9.95
2022-10-19T15:31:19.585Z,18.27
2022-10-19T15:33:52.031Z,10.57
2022-10-19T15:36:20.787Z,9.90
2022-10-19T15:38:50.206Z,14.23
2022-10-19T15:41:26.219Z,10.82
2022-10-19T15:43:54.736Z,10.55
2022-10-19T15:46:31.910Z,10.38
2022-10-19T15:49:04.724Z,11.05
2022-10-19T15:51:36.821Z,15.65
2022-10-19T15:54:07.837Z,12.05
2022-10-19T15:56:40.443Z,11.90
2022-10-19T15:59:13.656Z,15.45
2022-10-19T16:01:40.851Z,16.73
2022-10-19T16:04:07.693Z,9.52
2022-10-19T16:06:37.037Z,13.05
2022-10-19T16:09:04.530Z,11.13
2022-10-19T16:11:33.840Z,8.00
2022-10-19T16:14:00.782Z,11.77
2022-10-19T16:16:31.250Z,10.90
2022-10-19T16:18:59.175Z,10.10
2022-10-19T16:21:31.037Z,14.90
2022-10-19T16:23:58.451Z,10.77
2022-10-19T16:26:26.436Z,14.75
2022-10-19T16:28:54.990Z,17.52
2022-10-19T16:31:22.617Z,22.13
2022-10-19T16:33:49.765Z,16.15
2022-10-19T16:36:20.379Z,23.00
2022-10-19T16:38:48.262Z,21.45
2022-10-19T16:41:16.082Z,20.10
2022-10-19T16:43:43.323Z,15.18
2022-10-19T16:46:10.627Z,19.35
2022-10-19T16:48:38.386Z,22.10
2022-10-19T16:51:07.942Z,27.23
2022-10-19T16:53:36.280Z,18.52
2022-10-19T16:56:08.188Z,19.92
2022-10-19T16:58:36.666Z,18.52
2022-10-19T17:01:08.365Z,18.20
2022-10-19T17:03:35.479Z,12.93
2022-10-19T17:06:04.634Z,15.25
2022-10-19T17:09:14.317Z,9.60
2022-10-19T17:11:25.184Z,16.08
2022-10-19T17:13:54.075Z,15.27
2022-10-19T17:16:22.082Z,11.70
2022-10-19T17:18:49.402Z,8.27
2022-10-19T17:21:19.877Z,10.85
2022-10-19T17:23:47.226Z,14.63
2022-10-19T17:26:14.340Z,15.80
2022-10-19T17:28:41.271Z,13.65
2022-10-19T17:31:11.432Z,10.55
2022-10-19T17:33:39.308Z,11.10
2022-10-19T17:36:07.352Z,7.85
2022-10-19T17:38:34.481Z,11.07
2022-10-19T17:41:03.481Z,10.95
2022-10-19T17:43:30.512Z,15.82
2022-10-19T17:46:01.917Z,16.25
2022-10-19T17:51:01.599Z,15.63
2022-10-19T17:53:30.585Z,16.83
2022-10-19T17:56:01.127Z,18.40
2022-10-19T17:58:28.476Z,16.03
2022-10-19T18:00:56.436Z,15.18
2022-10-19T18:03:24.867Z,13.63
2022-10-19T18:06:09.869Z,12.73
2022-10-19T18:08:43.425Z,15.75
2022-10-19T18:11:19.969Z,9.70
2022-10-19T18:13:47.874Z,9.25
2022-10-19T18:16:23.635Z,11.95
2022-10-19T18:18:53.339Z,7.50
2022-10-19T18:21:23.496Z,9.88
2022-10-19T18:23:50.712Z,11.90
2022-10-19T18:26:22.322Z,9.98
2022-10-19T18:28:50.952Z,11.07
2022-10-19T18:31:23.676Z,11.20
2022-10-19T18:33:57.113Z,9.55
2022-10-19T18:36:24.524Z,7.05
2022-10-19T18:38:58.091Z,8.70
2022-10-19T18:41:26.106Z,6.05
2022-10-19T18:43:55.539Z,8.18
2022-10-19T18:46:24.047Z,9.05
2022-10-19T18:48:51.647Z,10.85
2022-10-19T18:51:20.074Z,8.80
2022-10-19T18:53:47.891Z,7.13
2022-10-19T18:56:18.203Z,11.13
2022-10-19T18:58:45.874Z,8.75
2022-10-19T19:01:24.305Z,11.68
2022-10-19T19:03:53.429Z,12.98
2022-10-19T19:06:23.962Z,13.38
2022-10-19T19:08:51.373Z,12.80
2022-10-19T19:11:26.491Z,13.07
2022-10-19T19:14:02.145Z,10.00
2022-10-19T19:16:32.597Z,12.25
2022-10-19T19:18:59.668Z,12.73
2022-10-19T19:21:29.496Z,8.68
2022-10-19T19:24:00.183Z,12.45
2022-10-19T19:26:30.458Z,14.10
2022-10-19T19:28:57.801Z,15.52
2022-10-19T19:31:25.362Z,15.45
2022-10-19T19:33:52.620Z,13.40
2022-10-19T19:36:19.947Z,11.90
2022-10-19T19:38:49.116Z,13.93
2022-10-19T19:41:16.744Z,26.45
2022-10-19T19:43:44.237Z,21.58
2022-10-19T19:46:14.570Z,32.97
2022-10-19T19:48:43.153Z,21.08
2022-10-19T19:51:13.874Z,27.20
2022-10-19T19:53:41.173Z,19.58
2022-10-19T19:56:09.919Z,21.33
2022-10-19T19:58:37.638Z,20.08
2022-10-19T20:01:19.656Z,16.83
2022-10-19T20:03:47.679Z,25.45
2022-10-19T20:06:17.880Z,23.30
2022-10-19T20:08:46.997Z,17.17
2022-10-19T20:11:16.277Z,13.48
2022-10-19T20:13:45.402Z,14.27
2022-10-19T20:16:22.799Z,11.95
2022-10-19T20:18:59.783Z,15.43
2022-10-19T20:21:28.405Z,11.80
2022-10-19T20:23:55.719Z,17.15
2022-10-19T20:26:24.353Z,22.10
2022-10-19T20:28:51.919Z,21.75
2022-10-19T20:31:19.800Z,16.52
2022-10-19T20:33:48.067Z,11.68
2022-10-19T20:36:18.481Z,7.63
2022-10-19T20:38:48.715Z,11.63
2022-10-19T20:41:15.963Z,11.82
2022-10-19T20:43:43.297Z,9.23
2022-10-19T20:46:16.249Z,12.35
2022-10-19T20:48:43.639Z,9.35
2022-10-19T20:51:14.247Z,7.13
2022-10-19T20:53:41.740Z,16.73
2022-10-19T20:56:10.894Z,12.73
2022-10-19T20:58:43.581Z,12.40
2022-10-19T21:01:16.872Z,16.17
2022-10-19T21:03:53.381Z,12.40
2022-10-19T21:06:21.607Z,13.77
2022-10-19T21:08:48.842Z,12.43
2022-10-19T21:11:18.631Z,16.13
2022-10-19T21:13:46.525Z,28.63
2022-10-19T21:16:18.660Z,28.98
2022-10-19T21:18:48.147Z,18.05
2022-10-19T21:21:22.225Z,20.75
2022-10-19T21:23:51.582Z,22.13
2022-10-19T21:26:18.361Z,16.25
2022-10-19T21:28:50.516Z,15.48
2022-10-19T21:31:18.149Z,13.93
2022-10-19T21:33:45.902Z,17.20
2022-10-19T21:36:14.445Z,15.45
2022-10-19T21:38:42.710Z,11.00
2022-10-19T21:41:13.548Z,7.13
2022-10-19T21:43:40.751Z,5.85
2022-10-19T21:46:11.839Z,7.80
2022-10-19T21:48:39.414Z,9.25
2022-10-19T21:51:31.637Z,8.30
2022-10-19T21:53:58.739Z,10.38
2022-10-19T21:56:25.841Z,7.03
2022-10-19T21:58:54.161Z,8.18
2022-10-19T22:01:23.661Z,8.02
2022-10-19T22:03:54.399Z,8.15
2022-10-19T22:06:21.202Z,13.98
